Wabash, IN

2:28 PM EDT on July 04, 2015 (GMT -0400)
N9UAX - King St. Weather | | Change Station
CLOSE
Current Station
Personal Weather Station
Location: Wabash, IN
Elevation: 771 ft
Nearby Weather Stations
Active Advisory: Flood Warning

Elev 771 ft 40.78 °N, 85.84 °W | Updated 11 seconds ago

Partly Cloudy
Partly Cloudy
68.6 °F
Feels Like 68.6 °F
N
-
Wind Variable Wind from North
Gusts 0.0 mph

Today
High -- | Low -- °F
--% Chance of Precip.
Yesterday
High -- | Low -- °F
Precip. -- in
6:17 AM 9:18 PM
Waning Gibbous, 91% visible
Pressure 30.02 in
Visibility 10.0 miles
Clouds Few 4200 ft
Dew Point 57.0 °F
Humidity 66%
Rainfall 0.00 in
Snow Depth Not available.
UV 11 out of 12
Pollen 3.40 out of 12
Air Quality Not available.
Flu Activity Not available.
METAR KGUS 041758Z AUTO 01002KT 10SM FEW042 24/15 A3002 RMK AO2 SLP165 T02420147 10244 20155 50003

More Conditions Fewer Conditions

Pressure 30.02 in
Visibility 10.0 miles
Clouds Few 4200 ft
Dew Point 57.0 °F
Humidity 66%
Rainfall 0.00 in
Snow Depth Not available.
UV 11 out of 12
Pollen 3.40 out of 12
Air Quality Not available.
Flu Activity Not available.
METAR KGUS 041758Z AUTO 01002KT 10SM FEW042 24/15 A3002 RMK AO2 SLP165 T02420147 10244 20155 50003

More Conditions Fewer Conditions

10-Day Weather Forecast

×

Almanac

Astronomy

Jul. 04, 2015 Rise Set
Actual Time
Civil Twilight
Nautical Twilight
Astronomical Twilight
Moon
Length of Visible Light
Length of Day
Tomorrow will be .
, % of the Moon is Illuminated

Today's Extremes

State Highs State Lows

Community

WunderPhotos

Upload Photos

1,835,032 photos uploaded!

WunderBlogs® & News

Nearby

Air Quality

  Air Quality AQ Index Pollutant
Not available.

Snow Depth

Station Depth Elevation

Earthquake Activity

City Distance Mag. Time & Date
Minimum magnitude displayed is 2.5.

Coastal Water Temperatures

Place Temperature

Stations

Nearby Weather Stations

Station Location Temp. Windchill Dew Point Humidity Wind Precip. Elev Updated Type
                   
Flood Warning
Statement as of 11:13 AM EDT on July 04, 2015

The Flood Warning continues for
the Wabash River at Wabash
* until further notice.
* At 10 am Saturday the stage was 16.1 feet and falling.
* Minor flooding is occurring and minor flooding is forecast.
* Flood stage is 14.0 feet.
* Forecast... the river will rise to a crest near 16.2 feet around 2
am Monday July 6 and begin falling.
* At 17.0 feet... some low lying areas and lowest sections of Wabash
and Lagro begin to flood.


Lat... Lon 4070 8618 4078 8619 4086 8570 4081 8568
      4078 8582